Weather observations for the past three days for
Blakely, Early County Airport
Imperial (Metric)
Date Time (edt) Wind (mph) Vis. (mi.) Weather Sky Cond. Temperature (ºF) Relative Humidity Wind Chill (°F) Heat Index (°F) Pressure Precipitation (in)
Air Dwpt 6 hour altimeter (in) sea level (mb) 1 hr 3 hr 6 hr
Max. Min.
07 18:35 SW 8 10.00 Fair CLR 77 69.8 79% 79 29.91 0.0
07 18:15 SW 7 10.00 Fair CLR 77 69.8 79% 79 29.9 0.0
07 17:55 SW 6 10.00 Partly Cloudy SCT025 SCT034 77 69.8 79% 79 29.9 0.0
07 17:35 SW 8 10.00 Overcast OVC027 77 69.8 79% 79 29.9 0.0
07 17:15 SW 8 10.00 Overcast SCT023 OVC027 77 69.8 79% 79 29.9 0.0
07 16:55 SW 9 10.00 Overcast SCT017 OVC023 75.2 69.8 83% 75 29.9 0.0
07 16:35 SW 9 10.00 Overcast BKN014 OVC020 73.4 68 83% 29.91 0.0
07 16:15 SW 8 10.00 Overcast BKN014 BKN020 OVC028 77 69.8 79% 79 29.91 0.0
07 15:55 SW 10 10.00 Overcast OVC014 75.2 69.8 83% 75 29.91 0.0
07 15:35 SW 8 G 16 10.00 Overcast OVC014 77 69.8 79% 79 29.91 0.0
07 15:15 SW 9 10.00 Overcast OVC016 75.2 69.8 83% 75 29.92 0.0
07 14:55 SW 13 G 21 10.00 Overcast OVC016 75.2 68 78% 76 29.92 0.0
07 14:35 SW 12 10.00 Overcast SCT009 OVC014 75.2 69.8 83% 75 29.93 0.0
07 14:15 SW 9 10.00 Overcast BKN007 BKN014 OVC020 73.4 69.8 89% 29.93 0.0
07 13:55 SW 9 5.00 Fog/Mist SCT007 OVC018 71.6 69.8 94% 29.94 0.0 0.05
07 13:35 S 7 4.00 Light Rain BKN020 BKN031 OVC045 69.8 68 94% 29.94 0.0 0.04
07 13:15 SW 9 10.00 Overcast SCT009 SCT021 OVC045 69.8 66.2 88% 29.95 0.0
07 12:55 SW 9 10.00 Thunderstorm Light Rain in Vicinity BKN009 BKN024 OVC070 69.8 66.2 88% 29.95 0.0 0.06
07 12:35 SW 10 10.00 Thunderstorm Light Rain in Vicinity SCT009 BKN075 OVC090 69.8 66.2 88% 29.96 0.0 0.05
07 12:15 SW 13 7.00 Rain BKN009 BKN012 OVC032 69.8 68 94% 29.96 0.0 0.02
07 11:55 SW 9 G 18 7.00 Thunderstorm Light Rain BKN006 OVC012 69.8 68 94% 29.97 0.0 0.03
07 11:35 SW 8 7.00 Thunderstorm Light Rain in Vicinity BKN006 BKN014 OVC028 69.8 68 94% 29.96 0.0 0.03
07 11:15 S 6 7.00 Light Rain BKN006 BKN019 OVC047 69.8 68 94% 29.94 0.0 0.01
07 10:55 SW 7 7.00 Thunderstorm Light Rain in Vicinity BKN008 BKN065 OVC110 69.8 68 94% 29.96 0.0 0.08
07 10:35 S 5 10.00 Rain SCT065 SCT090 OVC120 69.8 68 94% 29.93 0.0 0.05
07 10:15 SW 7 7.00 Thunderstorm Rain SCT075 BKN110 69.8 66.2 88% 29.94 0.0 0.03
07 09:55 SW 16 4.00 Thunderstorm Rain in Vicinity SCT017 SCT050 OVC110 69.8 66.2 88% 29.94 0.0 0.12
07 09:35 SW 13 G 18 5.00 Thunderstorm Rain in Vicinity BKN120 69.8 66.2 88% 29.95 0.0 0.06
07 09:15 S 9 7.00 Thunderstorm Rain SCT050 BKN120 69.8 68 94% 29.94 0.0 0.02
07 08:55 S 8 7.00 Thunderstorm Rain in Vicinity SCT009 SCT021 OVC110 69.8 68 94% 29.95 0.0 0.54
07 08:35 Calm 1.25 Thunderstorm Heavy Rain SCT003 OVC007 69.8 68 94% 29.99 0.0 0.34
07 08:15 NW 3 7.00 Overcast OVC007 69.8 68 94% 29.96 0.0
07 07:55 Calm 7.00 Overcast SCT006 OVC009 69.8 68 94% 29.94 0.0
07 07:35 Calm 5.00 Thunderstorm in Vicinity Fog/Mist SCT006 OVC014 69.8 68 94% 29.92 0.0
07 07:15 Calm 5.00 Fog/Mist SCT013 BKN019 BKN039 69.8 68 94% 29.91 0.0
07 06:55 S 3 5.00 Thunderstorm in Vicinity Fog/Mist SCT011 BKN025 OVC040 69.8 68 94% 29.91 0.0
07 06:35 Calm 7.00 Thunderstorm in Vicinity SCT007 OVC011 69.8 68 94% 29.93 0.0
07 06:15 Calm 7.00 Thunderstorm in Vicinity SCT008 OVC012 69.8 68 94% 29.93 0.0
07 05:55 Calm 7.00 Rain OVC012 69.8 68 94% 29.9 0.0 0.01
07 05:35 S 3 7.00 Light Rain SCT013 BKN028 BKN048 69.8 68 94% 29.89 0.0 0.01
07 05:20 S 5 7.00 Light Rain SCT019 SCT032 BKN070 69.8 68 94% 29.88 0.0
07 04:55 SE 3 7.00 Light Rain BKN010 OVC014 71.6 68 88% 29.9 0.0
07 04:35 Calm 10.00 Light Rain OVC010 71.6 68 88% 29.93 0.0
07 04:15 W 3 10.00 Overcast OVC010 71.6 68 88% 29.93 0.0
07 03:55 SW 9 10.00 Thunderstorm in Vicinity OVC010 71.6 68 88% 29.92 0.0
07 03:35 SW 7 10.00 Thunderstorm in Vicinity OVC012 71.6 68 88% 29.91 0.0
07 03:15 SW 7 10.00 Overcast OVC012 71.6 66.2 83% 29.91 0.0
07 02:55 SW 10 10.00 Overcast OVC014 71.6 66.2 83% 29.9 0.0
07 02:35 SW 12 10.00 Overcast OVC014 71.6 64.4 78% 29.92 0.0
07 02:15 SW 6 10.00 Mostly Cloudy BKN019 71.6 64.4 78% 29.93 0.0
07 01:55 SW 8 10.00 Fair CLR 71.6 62.6 73% 29.92 0.0
07 01:35 S 7 10.00 Fair CLR 73.4 62.6 69% 29.91 0.0
07 01:15 S 6 10.00 Fair CLR 73.4 60.8 65% 29.93 0.0
07 00:55 SW 8 10.00 Fair CLR 73.4 60.8 65% 29.93 0.0
07 00:35 S 8 10.00 Fair CLR 73.4 59 61% 29.94 0.0
07 00:15 SW 7 10.00 Fair CLR 73.4 60.8 65% 29.96 0.0
06 23:55 SW 10 10.00 Fair CLR 75.2 60.8 61% 77 29.95 0.0
06 23:35 S 6 10.00 Fair CLR 75.2 62.6 65% 77 29.94 0.0
06 23:15 SW 7 10.00 Fair CLR 75.2 62.6 65% 77 29.95 0.0
06 22:55 S 6 10.00 Fair CLR 77 62.6 61% 79 29.95 0.0
06 22:35 Calm 10.00 Fair CLR 77 62.6 61% 79 29.96 0.0
06 22:15 S 8 10.00 Fair CLR 77 62.6 61% 79 29.94 0.0
06 21:55 S 3 10.00 Fair CLR 77 62.6 61% 79 29.93 0.0
06 21:35 S 6 10.00 Fair CLR 77 60.8 57% 79 29.93 0.0
06 21:15 SW 6 10.00 Fair CLR 77 60.8 57% 79 29.92 0.0
06 20:55 SW 5 10.00 Fair CLR 78.8 60.8 54% 80 29.93 0.0
06 20:35 S 7 10.00 Partly Cloudy SCT065 78.8 60.8 54% 80 29.92 0.0
06 20:15 S 5 10.00 Partly Cloudy SCT065 80.6 60.8 51% 81 29.92 0.0
06 19:55 SW 7 10.00 Fair CLR 80.6 59 48% 81 29.94 0.0
06 19:35 S 7 10.00 Fair CLR 82.4 59 45% 82 29.93 0.0
06 19:15 S 5 10.00 Fair CLR 82.4 60.8 48% 83 29.92 0.0
06 18:55 S 6 10.00 Fair CLR 84.2 60.8 45% 84 29.92 0.0
06 18:35 S 5 10.00 Fair CLR 82.4 60.8 48% 83 29.91 0.0
06 18:15 S 6 10.00 Fair CLR 86 59 40% 85 29.92 0.0
06 17:55 S 12 10.00 Fair CLR 86 60.8 43% 86 29.92 0.0
06 17:35 S 6 10.00 Fair CLR 86 59 40% 85 29.92 0.0
06 17:15 S 8 10.00 Fair CLR 86 59 40% 85 29.94 0.0
06 16:55 W 5 10.00 Fair CLR 86 59 40% 85 29.96 0.0
06 16:35 W 8 10.00 Partly Cloudy SCT060 86 59 40% 85 29.96 0.0
06 16:15 SW 12 G 17 10.00 Partly Cloudy SCT060 84.2 59 43% 84 29.97 0.0
06 15:55 SW 9 10.00 Partly Cloudy SCT050 86 59 40% 85 29.98 0.0
06 15:35 SW 8 10.00 Mostly Cloudy BKN050 84.2 59 43% 84 30 0.0
06 15:15 Calm 10.00 Mostly Cloudy BKN050 82.4 59 45% 82 30 0.0
06 14:55 W 8 10.00 Partly Cloudy SCT050 84.2 60.8 45% 84 30.01 0.0
06 14:35 SW 7 10.00 Fair CLR 82.4 59 45% 82 30.01 0.0
06 14:15 S 10 10.00 Partly Cloudy SCT048 82.4 60.8 48% 83 30.01 0.0
06 13:55 NW 8 10.00 Mostly Cloudy BKN048 80.6 59 48% 81 30.02 0.0
06 13:35 SW 5 10.00 Partly Cloudy SCT044 80.6 60.8 51% 81 30.03 0.0
06 13:15 W 7 10.00 Partly Cloudy SCT044 80.6 60.8 51% 81 30.03 0.0
06 12:55 SW 6 10.00 Fair CLR 80.6 60.8 51% 81 30.04 0.0
06 12:35 SW 6 10.00 Fair CLR 80.6 60.8 51% 81 30.05 0.0
06 12:15 SW 8 10.00 Partly Cloudy SCT034 78.8 60.8 54% 80 30.05 0.0
06 11:55 SW 7 10.00 Partly Cloudy SCT028 77 62.6 61% 79 30.05 0.0
06 11:35 SW 7 10.00 Partly Cloudy SCT026 77 62.6 61% 79 30.05 0.0
06 11:15 SW 6 10.00 Partly Cloudy SCT024 75.2 62.6 65% 77 30.05 0.0
06 10:55 W 5 10.00 Fair CLR 73.4 62.6 69% 30.05 0.0
06 10:35 W 5 10.00 Fair CLR 73.4 62.6 69% 30.04 0.0
06 10:15 SW 8 10.00 Partly Cloudy SCT014 SCT019 73.4 62.6 69% 30.03 0.0
06 09:55 SW 5 10.00 Mostly Cloudy BKN014 69.8 62.6 78% 30.03 0.0
06 09:35 SW 7 10.00 Overcast OVC012 69.8 62.6 78% 30.02 0.0
06 09:15 Calm 10.00 Overcast OVC008 68 62.6 83% 30.02 0.0
06 08:55 SW 3 10.00 Overcast OVC008 66.2 62.6 88% 30.01 0.0
06 08:35 SW 3 10.00 Overcast OVC006 64.4 62.6 94% 30 0.0
06 08:15 SW 7 10.00 Overcast OVC004 62.6 62.6 100% 29.99 0.0
06 07:55 SW 3 7.00 Overcast OVC002 62.6 60.8 94% 29.98 0.0
06 07:35 Calm 5.00 Fog/Mist OVC002 62.6 60.8 94% 29.97 0.0
06 07:15 Calm 4.00 Fog/Mist OVC002 62.6 60.8 94% 29.96 0.0
06 06:55 Calm 1.50 Fog/Mist OVC002 62.6 60.8 94% 29.95 0.0
06 06:35 Calm 1.00 Fog/Mist OVC002 60.8 60.8 100% 29.94 0.0
06 06:15 Calm 5.00 Fog/Mist OVC002 60.8 59 94% 29.95 0.0
06 05:55 Calm 10.00 Overcast OVC004 59 57.2 94% 29.95 0.0
06 05:35 Calm 10.00 Mostly Cloudy BKN004 59 55.4 88% 29.95 0.0
06 05:15 Calm 10.00 Fair CLR 59 55.4 88% 29.95 0.0
06 04:55 Calm 10.00 Fair CLR 59 57.2 94% 29.96 0.0
06 04:35 Calm 10.00 Fair CLR 59 57.2 94% 29.96 0.0
06 04:15 Calm 10.00 Fair CLR 59 57.2 94% 29.95 0.0
06 03:55 Calm 10.00 Fair CLR 60.8 59 94% 29.96 0.0
06 03:35 Calm 10.00 Fair CLR 60.8 59 94% 29.96 0.0
06 03:15 Calm 10.00 Fair CLR 60.8 59 94% 29.96 0.0
06 02:55 Calm 10.00 Fair CLR 60.8 59 94% 29.96 0.0
06 02:35 Calm 10.00 Fair CLR 60.8 59 94% 29.96 0.0
06 02:15 Calm 10.00 Fair CLR 60.8 59 94% 29.97 0.0
06 01:55 Calm 10.00 Fair CLR 60.8 59 94% 29.97 0.0
06 01:35 Calm 10.00 Fair CLR 62.6 59 88% 29.97 0.0
06 01:15 Calm 10.00 Fair CLR 62.6 59 88% 29.97 0.0
06 00:55 Calm 10.00 Fair CLR 62.6 59 88% 29.98 0.0
06 00:35 Calm 10.00 Fair CLR 62.6 59 88% 29.99 0.0
06 00:15 Calm 10.00 Fair CLR 62.6 59 88% 30 0.0
05 23:55 Calm 10.00 Fair CLR 62.6 59 88% 30 0.0
05 23:35 Calm 10.00 Fair CLR 64.4 59 83% 29.99 0.0
05 23:15 Calm 10.00 Fair CLR 64.4 60.8 88% 29.99 0.0
05 22:55 Calm 10.00 Fair CLR 64.4 59 83% 29.98 0.0
05 22:35 Calm 10.00 Fair CLR 64.4 59 83% 29.99 0.0
05 22:15 Calm 10.00 Fair CLR 66.2 59 78% 29.98 0.0
05 21:55 Calm 10.00 Fair CLR 68 60.8 78% 29.97 0.0
05 21:35 Calm 10.00 Fair CLR 68 60.8 78% 29.97 0.0
05 21:15 Calm 10.00 Mostly Cloudy BKN060 69.8 60.8 73% 29.96 0.0
05 20:55 Calm 10.00 Mostly Cloudy BKN060 71.6 59 65% 29.96 0.0
05 20:35 Calm 10.00 Partly Cloudy SCT060 71.6 59 65% 29.95 0.0
05 20:15 Calm 10.00 Fair CLR 73.4 59 61% 29.94 0.0
05 19:55 Calm 10.00 Fair CLR 77 55.4 47% 79 29.95 0.0
05 19:35 Calm 10.00 Fair CLR 78.8 55.4 45% 79 29.94 0.0
05 19:15 S 3 10.00 Partly Cloudy SCT060 78.8 53.6 42% 79 29.94 0.0
05 18:55 S 6 10.00 Partly Cloudy SCT060 80.6 53.6 39% 80 29.95 0.0
05 18:35 SW 8 10.00 Fair CLR 80.6 53.6 39% 80 29.95 0.0
05 18:15 S 6 10.00 Fair CLR 80.6 50 34% 80 29.94 0.0
05 17:55 SW 6 10.00 Fair CLR 80.6 51.8 37% 80 29.94 0.0
05 17:35 SW 6 10.00 Fair CLR 80.6 51.8 37% 80 29.95 0.0
05 17:15 SW 10 10.00 Fair CLR 80.6 50 34% 80 29.95 0.0
05 16:55 S 5 10.00 Fair CLR 80.6 51.8 37% 80 29.96 0.0
05 16:35 S 6 10.00 Fair CLR 80.6 50 34% 80 29.96 0.0
05 16:15 Calm 10.00 Fair CLR 80.6 50 34% 80 29.97 0.0
05 15:55 S 7 10.00 Fair CLR 80.6 50 34% 80 29.97 0.0
05 15:35 SE 3 10.00 Fair CLR 78.8 50 37% 79 29.99 0.0
05 15:15 SW 7 10.00 Fair CLR 78.8 50 37% 79 29.99 0.0
05 14:55 SW 10 10.00 Fair CLR 78.8 50 37% 79 30 0.0
05 14:35 W 3 10.00 Fair CLR 78.8 50 37% 79 30.01 0.0
05 14:15 S 9 10.00 Fair CLR 78.8 50 37% 79 30.01 0.0
05 13:55 S 8 10.00 Fair CLR 77 48.2 36% 78 30.02 0.0
05 13:35 SW 8 10.00 Fair CLR 77 48.2 36% 78 30.02 0.0
05 13:15 SW 6 10.00 Fair CLR 77 46.4 34% 78 30.02 0.0
05 12:55 S 8 10.00 Fair CLR 75.2 46.4 36% 77 30.03 0.0
05 12:35 SE 5 10.00 Fair CLR 73.4 44.6 36% 30.03 0.0
05 12:15 S 8 10.00 Fair CLR 73.4 46.4 38% 30.05 0.0
05 11:55 SW 9 10.00 Fair CLR 71.6 46.4 41% 30.04 0.0
05 11:35 SW 9 10.00 Fair CLR 71.6 48.2 44% 30.05 0.0
05 11:15 S 6 10.00 Fair CLR 71.6 50 47% 30.04 0.0
05 10:55 SW 6 10.00 Fair CLR 69.8 50 50% 30.04 0.0
05 10:35 SW 7 10.00 Fair CLR 71.6 50 47% 30.05 0.0
05 10:15 S 3 10.00 Fair CLR 69.8 51.8 53% 30.04 0.0
05 09:55 S 3 10.00 Fair CLR 68 51.8 56% 30.04 0.0
05 09:35 S 3 10.00 Fair CLR 68 51.8 56% 30.03 0.0
05 09:15 S 3 10.00 Fair CLR 64.4 51.8 64% 30.03 0.0
05 08:55 Calm 10.00 Fair CLR 60.8 51.8 72% 30.02 0.0
05 08:35 Calm 10.00 Fair CLR 57.2 51.8 82% 30.02 0.0
05 08:15 Calm 10.00 Fair CLR 53.6 50 88% 30.02 0.0
05 07:55 Calm 10.00 Fair CLR 50 48.2 94% 30.01 0.0
05 07:35 Calm 10.00 Fair CLR 50 46.4 88% 30.01 0.0
05 07:15 Calm 10.00 Fair CLR 46.4 46.4 100% 30 0.0
05 06:55 Calm 10.00 Fair CLR 46.4 46.4 100% 30 0.0
05 06:35 Calm 10.00 Fair CLR 46.4 46.4 100% 30 0.0
05 06:15 Calm 10.00 Fair CLR 48.2 46.4 94% 30 0.0
05 05:55 Calm 10.00 Fair CLR 50 46.4 88% 30.01 0.0
05 05:35 Calm 10.00 Fair CLR 51.8 46.4 82% 30 0.0
05 05:15 SE 7 10.00 Fair CLR 50 46.4 88% 48 30 0.0
05 04:55 Calm 10.00 Fair CLR 48.2 46.4 94% 29.97 0.0
05 04:35 Calm 10.00 Fair CLR 46.4 44.6 93% 29.96 0.0
05 04:15 Calm 10.00 Fair CLR 46.4 44.6 93% 29.96 0.0
05 03:55 Calm 10.00 Fair CLR 48.2 46.4 94% 29.96 0.0
05 03:35 Calm 10.00 Fair CLR 50 46.4 88% 29.97 0.0
05 03:15 Calm 10.00 Fair CLR 48.2 46.4 94% 29.97 0.0
05 02:55 Calm 10.00 Fair CLR 50 46.4 88% 29.97 0.0
05 02:35 Calm 10.00 Fair CLR 51.8 48.2 88% 29.98 0.0
05 02:15 Calm 10.00 Fair CLR 50 46.4 88% 29.98 0.0
05 01:55 Calm 10.00 Fair CLR 51.8 48.2 88% 29.98 0.0
05 01:35 Calm 10.00 Fair CLR 51.8 46.4 82% 30 0.0
05 01:15 Calm 10.00 Fair CLR 51.8 50 94% 30 0.0
05 00:55 Calm 10.00 Fair CLR 51.8 48.2 88% 30 0.0
05 00:35 Calm 10.00 Fair CLR 53.6 48.2 82% 30 0.0
05 00:15 Calm 10.00 Fair CLR 53.6 50 88% 30.01 0.0
04 23:55 Calm 10.00 Fair CLR 55.4 50 82% 30.01 0.0
04 23:35 Calm 10.00 Fair CLR 55.4 50 82% 30.02 0.0
04 23:15 Calm 10.00 Fair CLR 55.4 50 82% 30.02 0.0
04 22:55 Calm 10.00 Fair CLR 57.2 50 77% 30.01 0.0
04 22:35 Calm 10.00 Fair CLR 59 48.2 68% 30.01 0.0
04 22:15 S 5 10.00 Fair CLR 55.4 50 82% 30 0.0
04 21:55 Calm 10.00 Fair CLR 57.2 50 77% 29.99 0.0
04 21:35 Calm 10.00 Fair CLR 59 50 72% 29.99 0.0
04 21:15 Calm 10.00 Fair CLR 59 50 72% 29.98 0.0
04 20:55 Calm 10.00 Fair CLR 60.8 51.8 72% 29.98 0.0
04 20:35 Calm 10.00 Fair CLR 64.4 50 60% 29.97 0.0
04 20:15 Calm 10.00 Fair CLR 66.2 50 56% 29.97 0.0
04 19:55 Calm 10.00 Fair CLR 71.6 48.2 44% 29.97 0.0
04 19:35 Calm 10.00 Fair CLR 73.4 48.2 41% 29.97 0.0
04 19:15 S 3 10.00 Fair CLR 77 37.4 24% 77 29.97 0.0
04 18:55 SE 3 10.00 Fair CLR 77 37.4 24% 77 29.97 0.0
Date Time (edt) Wind (mph) Vis. (mi.) Weather Sky Cond. Air Dwpt Max. Min. Relative Humidity Wind Chill (°F) Heat Index (°F) altimeter (in) sea level (mb) 1 hr 3 hr 6 hr
6 hour
Temperature (ºF) Pressure Precipitation (in)